createdAt,value
2022-11-03T00:03:27.646Z,100797.91
2022-11-03T00:08:29.111Z,100798.75
2022-11-03T00:13:30.599Z,100795.66
2022-11-03T00:18:32.332Z,100808.81
2022-11-03T00:23:35.926Z,100805.94
2022-11-03T00:28:37.883Z,100797.31
2022-11-03T00:33:40.996Z,100785.00
2022-11-03T00:38:43.796Z,100763.31
2022-11-03T00:43:45.206Z,100771.47
2022-11-03T00:48:46.841Z,100777.56
2022-11-03T00:53:49.213Z,100790.22
2022-11-03T00:58:51.773Z,100778.38
2022-11-03T01:03:55.874Z,100762.38
2022-11-03T01:08:58.928Z,100757.78
2022-11-03T01:14:00.594Z,100751.72
2022-11-03T01:19:02.224Z,100742.47
2022-11-03T01:24:05.089Z,100746.59
2022-11-03T01:29:06.465Z,100740.16
2022-11-03T01:34:13.733Z,100737.81
2022-11-03T01:39:17.715Z,100736.63
2022-11-03T01:44:19.178Z,100729.19
2022-11-03T01:49:30.777Z,100732.91
2022-11-03T01:54:34.466Z,100727.41
2022-11-03T01:59:36.382Z,100721.81
2022-11-03T02:04:38.354Z,100719.31
2022-11-03T02:09:40.026Z,100706.72
2022-11-03T02:14:49.154Z,100700.03
2022-11-03T02:19:57.106Z,100688.41
2022-11-03T02:25:04.693Z,100672.41
2022-11-03T02:30:06.793Z,100666.91
2022-11-03T02:35:23.418Z,100656.66
2022-11-03T02:40:35.002Z,100644.06
2022-11-03T02:45:38.114Z,100633.63
2022-11-03T02:50:39.604Z,100633.56
2022-11-03T02:56:02.994Z,100629.13
2022-11-03T03:01:43.637Z,100626.25
2022-11-03T03:06:54.516Z,100613.59
2022-11-03T03:11:59.003Z,100592.34
2022-11-03T03:17:14.158Z,100592.28
2022-11-03T03:22:39.562Z,100589.09
2022-11-03T03:27:45.890Z,100577.75
2022-11-03T03:32:49.875Z,100575.97
2022-11-03T03:37:55.626Z,100575.53
2022-11-03T03:42:58.150Z,100567.78
2022-11-03T03:48:00.009Z,100556.72
2022-11-03T03:53:04.674Z,100562.81
2022-11-03T03:58:07.546Z,100562.28
2022-11-03T04:03:16.134Z,100553.03
2022-11-03T04:08:17.723Z,100546.31
2022-11-03T04:13:19.111Z,100547.06
2022-11-03T04:18:22.010Z,100544.31
2022-11-03T04:23:23.484Z,100555.16
2022-11-03T04:28:25.764Z,100549.88
2022-11-03T04:33:29.322Z,100540.22
2022-11-03T04:38:30.757Z,100525.69
2022-11-03T04:43:37.780Z,100515.22
2022-11-03T04:48:39.573Z,100505.34
2022-11-03T04:53:48.779Z,100506.56
2022-11-03T04:58:50.689Z,100496.19
2022-11-03T05:03:54.462Z,100481.25
2022-11-03T05:09:05.626Z,100467.28
2022-11-03T05:14:15.503Z,100474.03
2022-11-03T05:19:24.468Z,100476.44
2022-11-03T05:24:26.749Z,100464.13
2022-11-03T05:29:37.618Z,100459.91
2022-11-03T05:34:44.087Z,100451.91
2022-11-03T05:39:47.713Z,100437.59
2022-11-03T05:44:52.732Z,100431.16
2022-11-03T05:50:00.353Z,100438.59
2022-11-03T05:55:03.359Z,100424.91
2022-11-03T06:00:08.068Z,100420.53
2022-11-03T06:05:20.007Z,100420.09
2022-11-03T06:10:26.145Z,100411.13
2022-11-03T06:15:34.368Z,100400.00
2022-11-03T06:20:36.561Z,100391.56
2022-11-03T06:25:38.581Z,100398.25
2022-11-03T06:35:44.104Z,100396.19
2022-11-03T06:40:45.948Z,100395.34
2022-11-03T06:45:50.617Z,100395.41
2022-11-03T06:50:53.196Z,100387.03
2022-11-03T06:55:55.465Z,100372.19
2022-11-03T07:01:03.258Z,100357.09
2022-11-03T07:06:11.156Z,100359.13
2022-11-03T07:11:19.100Z,100355.31
2022-11-03T07:16:35.227Z,100351.47
2022-11-03T07:21:49.767Z,100338.66
2022-11-03T07:26:59.852Z,100324.47
2022-11-03T07:32:01.471Z,100313.22
2022-11-03T07:37:03.011Z,100297.16
2022-11-03T07:42:18.181Z,100293.03
2022-11-03T07:47:21.841Z,100292.91
2022-11-03T07:52:26.051Z,100287.00
2022-11-03T07:57:31.828Z,100288.94
2022-11-03T08:02:34.739Z,100275.75
2022-11-03T08:07:36.319Z,100271.47
2022-11-03T08:12:37.768Z,100266.91
2022-11-03T08:17:39.170Z,100251.59
2022-11-03T08:22:46.112Z,100257.22
2022-11-03T08:27:51.442Z,100266.84
2022-11-03T08:32:52.916Z,100265.56
2022-11-03T08:37:54.360Z,100263.72
2022-11-03T08:42:55.810Z,100255.97
2022-11-03T08:47:57.551Z,100245.72
2022-11-03T08:52:59.043Z,100240.75
2022-11-03T08:58:00.497Z,100226.09
2022-11-03T09:03:02.361Z,100210.91
2022-11-03T09:13:25.825Z,100202.16
2022-11-03T09:18:27.337Z,100187.00
2022-11-03T09:23:28.938Z,100193.41
2022-11-03T09:28:30.398Z,100176.41
2022-11-03T09:33:33.961Z,100155.94
2022-11-03T09:38:35.392Z,100139.81
2022-11-03T09:43:36.912Z,100140.91
2022-11-03T09:48:39.052Z,100113.19
2022-11-03T09:53:40.790Z,100108.09
2022-11-03T09:58:42.304Z,100081.47
2022-11-03T10:03:47.038Z,100064.53
2022-11-03T10:08:49.248Z,100056.25
2022-11-03T10:13:55.049Z,100051.91
2022-11-03T10:18:57.666Z,100066.25
2022-11-03T10:23:59.334Z,100038.28
2022-11-03T10:29:03.475Z,100023.31
2022-11-03T10:34:24.459Z,100028.16
2022-11-03T10:39:31.815Z,100002.75
2022-11-03T10:44:33.257Z,99989.50
2022-11-03T10:49:39.304Z,99993.56
2022-11-03T10:54:42.501Z,99982.38
2022-11-03T10:59:45.764Z,99965.97
2022-11-03T11:04:48.900Z,99959.56
2022-11-03T11:09:50.745Z,99958.50
2022-11-03T11:15:00.119Z,99962.56
2022-11-03T11:44:39.933Z,99920.94
2022-11-03T11:49:41.416Z,99927.28
2022-11-03T11:54:43.328Z,99919.44
2022-11-03T11:59:46.712Z,99919.84
2022-11-03T12:04:53.657Z,99900.59
2022-11-03T12:09:55.138Z,99871.72
2022-11-03T12:14:56.646Z,99841.34
2022-11-03T12:19:58.091Z,99809.81
2022-11-03T12:25:04.032Z,99786.06
2022-11-03T12:30:13.083Z,99784.88
2022-11-03T12:35:15.001Z,99785.25
2022-11-03T12:40:36.850Z,99775.19
2022-11-03T12:45:38.350Z,99786.25
2022-11-03T12:50:39.793Z,99775.41
2022-11-03T12:55:44.585Z,99780.50
2022-11-03T13:00:52.128Z,99756.34
2022-11-03T13:05:57.184Z,99731.81
2022-11-03T13:10:59.130Z,99712.81
2022-11-03T13:16:00.905Z,99697.09
2022-11-03T13:21:02.418Z,99687.56
2022-11-03T13:26:04.026Z,99658.13
2022-11-03T13:31:05.727Z,99651.47
2022-11-03T13:36:07.494Z,99633.44
2022-11-03T13:41:09.544Z,99631.22
2022-11-03T13:46:11.179Z,99590.28
2022-11-03T13:51:12.676Z,99576.84
2022-11-03T13:56:20.828Z,99577.47
2022-11-03T14:01:23.924Z,99575.13
2022-11-03T14:06:25.623Z,99563.66
2022-11-03T14:11:27.149Z,99547.97
2022-11-03T14:16:28.715Z,99564.09
2022-11-03T14:21:30.169Z,99553.00
2022-11-03T14:26:42.313Z,99548.41
2022-11-03T14:31:44.608Z,99541.78
2022-11-03T14:36:46.142Z,99537.66
2022-11-03T14:41:47.749Z,99543.50
2022-11-03T14:46:49.223Z,99549.72
2022-11-03T14:51:50.716Z,99542.47
2022-11-03T14:56:52.481Z,99545.03
2022-11-03T15:01:55.125Z,99539.00
2022-11-03T15:06:59.410Z,99536.94
2022-11-03T15:12:00.991Z,99531.31
2022-11-03T15:17:02.397Z,99546.44
2022-11-03T15:22:03.875Z,99527.28
2022-11-03T15:27:05.303Z,99515.56
2022-11-03T15:32:07.028Z,99491.69
2022-11-03T15:37:08.572Z,99488.44
2022-11-03T15:42:10.015Z,99480.69
2022-11-03T15:47:11.457Z,99470.59
2022-11-03T15:52:12.893Z,99443.28
2022-11-03T16:02:40.074Z,99417.66
2022-11-03T16:07:42.592Z,99391.72
2022-11-03T16:12:44.068Z,99382.59
2022-11-03T16:17:45.873Z,99383.91
2022-11-03T16:22:47.378Z,99387.75
2022-11-03T16:27:48.973Z,99376.81
2022-11-03T16:32:50.418Z,99375.47
2022-11-03T16:37:52.022Z,99376.09
2022-11-03T16:42:53.428Z,99367.66
2022-11-03T16:47:55.878Z,99353.00
2022-11-03T16:52:57.374Z,99338.97
2022-11-03T16:57:58.889Z,99313.19
2022-11-03T17:03:00.564Z,99299.44
2022-11-03T17:08:02.107Z,99305.22
2022-11-03T17:13:07.693Z,99295.91
2022-11-03T17:18:14.331Z,99283.41
2022-11-03T17:23:15.799Z,99268.88
2022-11-03T17:28:17.289Z,99256.31
2022-11-03T17:33:18.821Z,99254.78
2022-11-03T17:38:20.396Z,99242.41
2022-11-03T17:43:28.020Z,99250.66
2022-11-03T17:48:29.466Z,99245.72
2022-11-03T17:53:32.613Z,99230.81
2022-11-03T17:58:40.517Z,99232.31
2022-11-03T18:03:44.889Z,99217.47
2022-11-03T18:08:47.296Z,99201.91
2022-11-03T18:13:50.065Z,99196.47
2022-11-03T18:18:51.790Z,99204.53
2022-11-03T18:23:53.205Z,99208.34
2022-11-03T18:28:54.728Z,99213.66
2022-11-03T18:33:56.809Z,99205.72
2022-11-03T18:38:59.814Z,99182.25
2022-11-03T18:44:02.483Z,99192.84
2022-11-03T18:49:03.966Z,99174.66
2022-11-03T18:54:05.777Z,99169.34
2022-11-03T18:59:35.578Z,99182.91
2022-11-03T19:04:37.014Z,99176.81
2022-11-03T19:09:38.741Z,99164.91
2022-11-03T19:14:42.286Z,99161.44
2022-11-03T19:19:44.891Z,99162.75
2022-11-03T19:24:46.380Z,99150.00
2022-11-03T19:29:48.606Z,99136.31
2022-11-03T19:34:58.279Z,99122.69
2022-11-03T19:39:59.895Z,99098.25
2022-11-03T19:45:06.490Z,99094.44
2022-11-03T19:50:14.686Z,99082.06
2022-11-03T19:55:18.145Z,99077.44
2022-11-03T20:00:19.614Z,99071.47
2022-11-03T20:05:21.030Z,99074.75
2022-11-03T20:10:22.500Z,99071.28
2022-11-03T20:15:23.916Z,99053.59
2022-11-03T20:20:29.121Z,99045.50
2022-11-03T20:25:34.049Z,99050.09
2022-11-03T20:30:35.481Z,99056.25
2022-11-03T20:35:37.068Z,99069.78
2022-11-03T20:40:40.424Z,99074.75
2022-11-03T20:45:41.851Z,99058.34
2022-11-03T20:50:43.604Z,99068.75
2022-11-03T20:55:45.321Z,99063.66
2022-11-03T21:00:48.236Z,99062.69
2022-11-03T21:05:49.997Z,99062.34
2022-11-03T21:10:52.304Z,99061.34
2022-11-03T21:16:22.608Z,99102.16
2022-11-03T21:21:20.814Z,99114.09
2022-11-03T21:26:22.748Z,99103.16
2022-11-03T21:31:24.196Z,99107.63
2022-11-03T21:36:25.679Z,99109.44
2022-11-03T21:41:27.093Z,99125.66
2022-11-03T21:46:28.493Z,99127.97
2022-11-03T21:51:29.948Z,99164.88
2022-11-03T21:56:31.424Z,99170.47
2022-11-03T22:01:32.875Z,99164.69
2022-11-03T22:06:34.457Z,99172.31
2022-11-03T22:11:35.941Z,99152.78
2022-11-03T22:16:37.435Z,99150.66
2022-11-03T22:21:39.175Z,99174.47
2022-11-03T22:26:40.579Z,99203.88
2022-11-03T22:31:42.036Z,99187.19
2022-11-03T22:36:43.490Z,99170.31
2022-11-03T22:41:44.935Z,99168.53
2022-11-03T22:46:46.355Z,99180.91
2022-11-03T22:51:47.770Z,99212.66
2022-11-03T22:56:49.266Z,99230.53
2022-11-03T23:01:50.780Z,99198.31
2022-11-03T23:06:52.454Z,99185.91
2022-11-03T23:11:53.861Z,99204.72
2022-11-03T23:16:55.231Z,99228.88
2022-11-03T23:21:56.807Z,99223.56
2022-11-03T23:26:58.485Z,99234.66
2022-11-03T23:32:01.142Z,99241.25
2022-11-03T23:37:03.075Z,99247.06
2022-11-03T23:42:04.696Z,99256.63
2022-11-03T23:47:08.048Z,99260.94
2022-11-03T23:52:09.500Z,99256.31
2022-11-03T23:57:10.994Z,99260.78
